Time;durP1;ratioP1;P1;durP2;ratioP2;P2;SDS_P1;SDS_P2;PMS_P1;PMS_P2;Temp;Humidity;BMP_temperature;BMP_pressure;BME280_temperature;BME280_humidity;BME280_pressure;Samples;Min_cycle;Max_cycle;Signal;HPM_P1;HPM_P2
2021/04/10 00:01:08;;;;;;;2.60;1.10;;;;;;;;;;5024945;28;20112;-75
2021/04/10 00:03:33;;;;;;;2.20;0.90;;;;;;;;;;5034536;28;20033;-76
2021/04/10 00:05:59;;;;;;;2.00;1.10;;;;;;;;;;5012330;28;20097;-75
2021/04/10 00:08:24;;;;;;;3.93;1.10;;;;;;;;;;5013719;28;20460;-75
2021/04/10 00:10:49;;;;;;;2.33;0.87;;;;;;;;;;5017216;28;20053;-75
2021/04/10 00:13:15;;;;;;;2.37;1.10;;;;;;;;;;5034508;28;20112;-75
2021/04/10 00:15:40;;;;;;;2.53;1.00;;;;;;;;;;5034613;28;20025;-76
2021/04/10 00:18:05;;;;;;;2.40;1.00;;;;;;;;;;5032412;28;20057;-75
2021/04/10 00:20:31;;;;;;;2.47;1.10;;;;;;;;;;4998186;28;20055;-75
2021/04/10 00:22:56;;;;;;;2.17;0.90;;;;;;;;;;5014773;28;20172;-75
2021/04/10 00:25:22;;;;;;;2.17;1.10;;;;;;;;;;4970491;28;20039;-76
2021/04/10 00:27:48;;;;;;;2.00;1.00;;;;;;;;;;4977841;28;20027;-75
2021/04/10 00:30:14;;;;;;;;;;;;;;;;;;4996955;28;20095;-75
2021/04/10 00:32:39;;;;;;;2.47;0.90;;;;;;;;;;4997957;28;19913;-75
2021/04/10 00:35:05;;;;;;;2.27;1.00;;;;;;;;;;5013654;28;20026;-76
2021/04/10 00:37:30;;;;;;;2.20;1.00;;;;;;;;;;5014288;28;20071;-76
2021/04/10 00:39:56;;;;;;;2.30;1.00;;;;;;;;;;4997590;28;20272;-76
2021/04/10 00:42:21;;;;;;;1.97;1.00;;;;;;;;;;5050528;28;20392;-75
2021/04/10 00:44:46;;;;;;;2.47;1.00;;;;;;;;;;5022519;28;20113;-76
2021/04/10 00:47:12;;;;;;;3.13;1.00;;;;;;;;;;4994661;28;20109;-75
2021/04/10 00:49:37;;;;;;;2.40;1.20;;;;;;;;;;4989588;28;20033;-76
2021/04/10 00:52:03;;;;;;;2.03;1.00;;;;;;;;;;4978584;28;20477;-75
2021/04/10 00:54:28;;;;;;;2.37;1.00;;;;;;;;;;4978225;28;20113;-75
2021/04/10 00:56:54;;;;;;;2.30;1.00;;;;;;;;;;4994402;28;20023;-75
2021/04/10 00:59:19;;;;;;;2.73;1.00;;;;;;;;;;4991073;28;20034;-76
2021/04/10 01:01:44;;;;;;;2.23;1.10;;;;;;;;;;4997978;28;20080;-75
2021/04/10 01:04:10;;;;;;;2.50;1.10;;;;;;;;;;5016163;28;20034;-75
2021/04/10 01:06:35;;;;;;;2.03;0.93;;;;;;;;;;5010140;28;20034;-75
2021/04/10 01:09:00;;;;;;;2.40;1.00;;;;;;;;;;5020862;28;20129;-75
2021/04/10 01:11:32;;;;;;;1.77;0.87;;;;;;;;;;5013873;28;20101;-75
2021/04/10 01:14:17;;;;;;;1.42;0.90;;;;;;;;;;5013622;28;20096;-75
2021/04/10 01:16:46;;;;;;;2.45;1.10;;;;;;;;;;5030010;28;20025;-75
2021/04/10 01:19:42;;;;;;;2.13;0.82;;;;;;;;;;5002428;28;20046;-75
2021/04/10 01:22:13;;;;;;;2.28;1.00;;;;;;;;;;4999146;28;20021;-75
2021/04/10 01:24:48;;;;;;;2.13;1.00;;;;;;;;;;5014737;28;20396;-75
2021/04/10 01:27:22;;;;;;;2.53;1.00;;;;;;;;;;5012654;28;20499;-75
2021/04/10 01:30:17;;;;;;;1.90;1.00;;;;;;;;;;4996658;28;20446;-76
2021/04/10 01:32:50;;;;;;;1.83;0.90;;;;;;;;;;4991786;28;20037;-75
2021/04/10 01:35:16;;;;;;;1.70;0.73;;;;;;;;;;5006069;28;20026;-75
2021/04/10 01:37:57;;;;;;;1.38;0.85;;;;;;;;;;4996488;28;20017;-76
2021/04/10 01:40:23;;;;;;;1.83;1.00;;;;;;;;;;4988024;28;20424;-75
2021/04/10 01:42:48;;;;;;;2.00;0.93;;;;;;;;;;5026675;28;20039;-75
2021/04/10 01:45:14;;;;;;;2.13;1.10;;;;;;;;;;5032711;28;20488;-75
2021/04/10 01:47:40;;;;;;;2.30;1.00;;;;;;;;;;5031029;28;20022;-75
2021/04/10 01:50:06;;;;;;;2.25;1.00;;;;;;;;;;4987135;28;20030;-75
2021/04/10 01:52:31;;;;;;;2.80;1.10;;;;;;;;;;4977119;28;20030;-76
2021/04/10 01:54:58;;;;;;;2.07;0.90;;;;;;;;;;4977408;28;20512;-75
2021/04/10 01:57:24;;;;;;;2.05;0.90;;;;;;;;;;4977207;28;20022;-75
2021/04/10 01:59:49;;;;;;;2.13;0.90;;;;;;;;;;4980929;28;20040;-75
2021/04/10 02:02:14;;;;;;;2.57;1.00;;;;;;;;;;4976995;28;20034;-76
2021/04/10 02:04:46;;;;;;;1.57;0.80;;;;;;;;;;4980216;28;20069;-75
2021/04/10 02:07:12;;;;;;;2.83;1.10;;;;;;;;;;5013280;28;20472;-76
2021/04/10 02:09:39;;;;;;;2.23;0.93;;;;;;;;;;4979903;28;20109;-75
2021/04/10 02:12:04;;;;;;;3.15;1.02;;;;;;;;;;4977019;28;20037;-75
2021/04/10 02:14:30;;;;;;;2.50;0.93;;;;;;;;;;4987086;28;20408;-75
2021/04/10 02:16:55;;;;;;;1.73;0.90;;;;;;;;;;4996453;28;20026;-76
2021/04/10 02:19:21;;;;;;;2.00;0.87;;;;;;;;;;4982326;28;20094;-75
2021/04/10 02:21:46;;;;;;;1.77;0.83;;;;;;;;;;4976918;28;20080;-75
2021/04/10 02:24:12;;;;;;;2.10;0.90;;;;;;;;;;4976673;28;20109;-75
2021/04/10 02:26:37;;;;;;;2.87;1.13;;;;;;;;;;4977461;28;20129;-75
2021/04/10 02:29:02;;;;;;;2.00;1.00;;;;;;;;;;4987805;28;20064;-76
2021/04/10 02:31:30;;;;;;;2.47;0.97;;;;;;;;;;4996003;28;20076;-75
2021/04/10 02:33:58;;;;;;;2.63;1.02;;;;;;;;;;5012427;28;20029;-75
2021/04/10 02:36:23;;;;;;;2.50;0.80;;;;;;;;;;4982090;28;20052;-75
2021/04/10 02:38:49;;;;;;;2.10;0.80;;;;;;;;;;5002786;28;20477;-75
2021/04/10 02:41:24;;;;;;;1.50;0.98;;;;;;;;;;4995880;28;20026;-75
2021/04/10 02:44:15;;;;;;;2.20;0.88;;;;;;;;;;4996857;28;20026;-75
2021/04/10 02:46:46;;;;;;;2.00;1.05;;;;;;;;;;4977479;28;20137;-75
2021/04/10 02:49:14;;;;;;;2.47;0.90;;;;;;;;;;4988837;28;20088;-75
2021/04/10 02:51:51;;;;;;;2.60;1.10;;;;;;;;;;5012767;28;20524;-75
2021/04/10 02:54:18;;;;;;;2.35;1.00;;;;;;;;;;5028533;28;20073;-75
2021/04/10 02:56:46;;;;;;;2.08;0.80;;;;;;;;;;4992098;28;20033;-75
2021/04/10 02:59:12;;;;;;;2.22;0.85;;;;;;;;;;5024939;28;20033;-75
2021/04/10 03:01:37;;;;;;;2.83;1.00;;;;;;;;;;5011404;28;20490;-75
2021/04/10 03:04:02;;;;;;;3.30;1.10;;;;;;;;;;4998303;28;20034;-75
2021/04/10 03:06:29;;;;;;;1.33;0.80;;;;;;;;;;4997463;28;20121;-74
2021/04/10 03:08:54;;;;;;;2.70;0.90;;;;;;;;;;4969760;28;20083;-75
2021/04/10 03:11:19;;;;;;;2.53;1.00;;;;;;;;;;5011949;28;20112;-75
2021/04/10 03:13:45;;;;;;;2.30;1.00;;;;;;;;;;5024048;28;20111;-75
2021/04/10 03:16:10;;;;;;;2.03;0.90;;;;;;;;;;5031697;28;20112;-75
2021/04/10 03:18:36;;;;;;;2.07;1.00;;;;;;;;;;5016033;28;20068;-75
2021/04/10 03:21:03;;;;;;;2.70;1.10;;;;;;;;;;4983488;28;20022;-75
2021/04/10 03:23:28;;;;;;;1.85;0.95;;;;;;;;;;5028487;28;20025;-75
2021/04/10 03:25:53;;;;;;;3.43;1.03;;;;;;;;;;4996164;28;20049;-75
2021/04/10 03:28:19;;;;;;;2.13;0.90;;;;;;;;;;4988644;28;20022;-76
2021/04/10 03:30:45;;;;;;;2.33;1.00;;;;;;;;;;4975893;28;20026;-75
2021/04/10 03:33:10;;;;;;;1.77;0.80;;;;;;;;;;4982431;28;20084;-75
2021/04/10 03:35:36;;;;;;;2.30;0.70;;;;;;;;;;4995486;28;20026;-75
2021/04/10 03:38:01;;;;;;;2.67;1.00;;;;;;;;;;4992686;28;20097;-75
2021/04/10 03:40:27;;;;;;;1.33;0.80;;;;;;;;;;4975855;28;20018;-75
2021/04/10 03:42:52;;;;;;;1.93;0.90;;;;;;;;;;5001888;28;20026;-75
2021/04/10 03:45:19;;;;;;;2.40;1.03;;;;;;;;;;5012839;28;20045;-75
2021/04/10 03:47:45;;;;;;;2.53;0.95;;;;;;;;;;5006917;28;20381;-75
2021/04/10 03:50:11;;;;;;;2.73;1.00;;;;;;;;;;5006528;28;20033;-75
2021/04/10 03:52:36;;;;;;;1.80;0.88;;;;;;;;;;4993306;28;20066;-75
2021/04/10 03:55:03;;;;;;;1.80;0.90;;;;;;;;;;4995028;28;20061;-75
2021/04/10 03:57:28;;;;;;;2.92;0.88;;;;;;;;;;5011672;28;20378;-74
2021/04/10 03:59:53;;;;;;;2.40;0.90;;;;;;;;;;4981593;28;20041;-75
2021/04/10 04:02:19;;;;;;;1.27;0.70;;;;;;;;;;4976678;28;20137;-75
2021/04/10 04:04:44;;;;;;;2.60;1.00;;;;;;;;;;5014592;23;20040;-88
2021/04/10 04:07:09;;;;;;;1.67;0.90;;;;;;;;;;5020361;28;20180;-88
2021/04/10 04:09:36;;;;;;;2.20;1.00;;;;;;;;;;4999120;28;20066;-88
2021/04/10 04:12:02;;;;;;;;;;;;;;;;;;5014057;28;20041;-88
2021/04/10 04:14:27;;;;;;;2.00;0.90;;;;;;;;;;5015101;28;19909;-88
2021/04/10 04:16:52;;;;;;;1.87;0.80;;;;;;;;;;4995501;28;20464;-88
2021/04/10 04:19:18;;;;;;;1.97;0.90;;;;;;;;;;4979262;28;20133;-87
2021/04/10 04:21:44;;;;;;;1.80;0.77;;;;;;;;;;4979391;28;20026;-88
2021/04/10 04:24:09;;;;;;;1.97;0.90;;;;;;;;;;4976056;28;20026;-88
2021/04/10 04:26:34;;;;;;;1.87;0.90;;;;;;;;;;4959696;28;20023;-88
2021/04/10 04:29:00;;;;;;;1.73;0.90;;;;;;;;;;5002491;28;20045;-88
2021/04/10 04:31:25;;;;;;;2.03;0.90;;;;;;;;;;4979268;28;20068;-88
2021/04/10 04:33:50;;;;;;;1.83;0.90;;;;;;;;;;4979074;28;20117;-88
2021/04/10 04:36:16;;;;;;;2.00;0.80;;;;;;;;;;4975685;28;20166;-88
2021/04/10 04:38:41;;;;;;;2.23;1.00;;;;;;;;;;4992197;28;20110;-88
2021/04/10 04:41:06;;;;;;;1.53;0.70;;;;;;;;;;4959507;28;20069;-88
2021/04/10 04:43:32;;;;;;;1.37;0.67;;;;;;;;;;4975869;28;20514;-88
2021/04/10 04:45:57;;;;;;;1.87;0.87;;;;;;;;;;4975652;28;20109;-89
2021/04/10 04:48:22;;;;;;;1.93;0.90;;;;;;;;;;4991783;28;20027;-88
2021/04/10 04:50:48;;;;;;;2.37;1.00;;;;;;;;;;4975527;28;20130;-88
2021/04/10 04:53:13;;;;;;;2.63;0.83;;;;;;;;;;4975359;28;20050;-88
2021/04/10 04:55:40;;;;;;;2.30;0.80;;;;;;;;;;4975475;28;20398;-88
2021/04/10 04:58:05;;;;;;;;;;;;;;;;;;4997584;28;20018;-89
2021/04/10 05:00:30;;;;;;;2.63;1.00;;;;;;;;;;4994696;28;19933;-88
2021/04/10 05:02:56;;;;;;;2.20;0.80;;;;;;;;;;4962481;28;20561;-88
2021/04/10 05:05:21;;;;;;;2.13;0.80;;;;;;;;;;4994540;28;20076;-88
2021/04/10 05:07:46;;;;;;;2.07;0.90;;;;;;;;;;4978361;28;20038;-88
2021/04/10 05:10:12;;;;;;;1.70;0.80;;;;;;;;;;4994547;28;20195;-88
2021/04/10 05:12:37;;;;;;;2.17;0.90;;;;;;;;;;4994328;28;20430;-88
2021/04/10 05:15:05;;;;;;;1.37;0.77;;;;;;;;;;4978209;28;20080;-88
2021/04/10 05:17:30;;;;;;;1.70;0.80;;;;;;;;;;4978355;28;20054;-88
2021/04/10 05:19:55;;;;;;;1.33;0.90;;;;;;;;;;4978052;28;20062;-88
2021/04/10 05:22:21;;;;;;;1.70;0.80;;;;;;;;;;4993586;28;20026;-88
2021/04/10 05:24:46;;;;;;;1.87;1.00;;;;;;;;;;4977957;28;20113;-88
2021/04/10 05:27:11;;;;;;;1.80;0.83;;;;;;;;;;4994061;28;20121;-88
2021/04/10 05:29:37;;;;;;;1.63;0.77;;;;;;;;;;4994187;28;20062;-88
2021/04/10 05:32:02;;;;;;;1.50;0.70;;;;;;;;;;4977962;28;20478;-88
2021/04/10 05:34:28;;;;;;;2.27;0.80;;;;;;;;;;4993521;28;20378;-88
2021/04/10 05:36:53;;;;;;;1.57;0.80;;;;;;;;;;5013598;28;20026;-88
2021/04/10 05:39:18;;;;;;;1.53;0.80;;;;;;;;;;5011930;28;20113;-88
2021/04/10 05:41:44;;;;;;;2.00;0.80;;;;;;;;;;4977956;28;20037;-89
2021/04/10 05:44:09;;;;;;;1.30;0.80;;;;;;;;;;4977865;28;20466;-89
2021/04/10 05:46:34;;;;;;;1.37;0.77;;;;;;;;;;4977612;28;20157;-89
2021/04/10 05:49:00;;;;;;;2.23;0.80;;;;;;;;;;4977647;28;20117;-89
2021/04/10 05:51:25;;;;;;;3.73;1.13;;;;;;;;;;4977706;28;20133;-88
2021/04/10 05:53:53;;;;;;;2.20;1.00;;;;;;;;;;4977626;28;20470;-89
2021/04/10 05:56:18;;;;;;;1.38;0.75;;;;;;;;;;4974102;28;20086;-89
2021/04/10 05:58:44;;;;;;;2.10;0.80;;;;;;;;;;4993126;28;20058;-89
2021/04/10 06:01:09;;;;;;;1.83;0.83;;;;;;;;;;4977166;28;20125;-89
2021/04/10 06:03:34;;;;;;;3.00;0.90;;;;;;;;;;4990094;28;20109;-89
2021/04/10 06:06:00;;;;;;;2.47;1.13;;;;;;;;;;4957957;28;20085;-89
2021/04/10 06:08:25;;;;;;;1.30;0.77;;;;;;;;;;4957800;28;20465;-88
2021/04/10 06:10:51;;;;;;;1.30;0.70;;;;;;;;;;4964252;28;20177;-89
2021/04/10 06:13:18;;;;;;;1.30;0.73;;;;;;;;;;4974723;28;20022;-89
2021/04/10 06:15:43;;;;;;;2.10;0.90;;;;;;;;;;4993592;28;20026;-88
2021/04/10 06:18:08;;;;;;;2.43;0.90;;;;;;;;;;4992884;28;20110;-88
2021/04/10 06:20:34;;;;;;;1.90;0.83;;;;;;;;;;4960967;28;20553;-89
2021/04/10 06:22:59;;;;;;;1.57;0.80;;;;;;;;;;4976951;28;20022;-89
2021/04/10 06:25:24;;;;;;;1.60;0.90;;;;;;;;;;4960168;28;20081;-89
2021/04/10 06:27:50;;;;;;;1.97;0.90;;;;;;;;;;4984304;28;20035;-90
2021/04/10 06:30:16;;;;;;;3.13;1.10;;;;;;;;;;4979252;28;20045;-88
2021/04/10 06:32:41;;;;;;;1.37;0.77;;;;;;;;;;4973708;28;20027;-87
2021/04/10 06:35:06;;;;;;;4.13;0.83;;;;;;;;;;4957498;28;20027;-88
2021/04/10 06:37:32;;;;;;;2.23;0.90;;;;;;;;;;4979909;28;20046;-88
2021/04/10 06:39:57;;;;;;;1.90;0.70;;;;;;;;;;4975050;28;20112;-89
2021/04/10 06:42:22;;;;;;;1.77;1.00;;;;;;;;;;4957463;28;20613;-88
2021/04/10 06:44:48;;;;;;;1.60;0.80;;;;;;;;;;4973459;28;20031;-87
2021/04/10 06:47:13;;;;;;;1.67;0.70;;;;;;;;;;4975736;28;20026;-88
2021/04/10 06:49:39;;;;;;;4.43;0.90;;;;;;;;;;4974703;28;20023;-89
2021/04/10 06:52:04;;;;;;;2.93;1.00;;;;;;;;;;4981062;28;20110;-88
2021/04/10 06:54:34;;;;;;;4.00;1.00;;;;;;;;;;4983362;28;20493;-88
2021/04/10 06:57:18;;;;;;;2.88;0.82;;;;;;;;;;4985243;28;20489;-89
2021/04/10 06:59:43;;;;;;;2.60;0.85;;;;;;;;;;4980171;28;20463;-88
2021/04/10 07:02:10;;;;;;;2.27;0.90;;;;;;;;;;4983824;28;20026;-89
2021/04/10 07:04:37;;;;;;;3.83;0.90;;;;;;;;;;4983891;28;20034;-88
2021/04/10 07:07:02;;;;;;;5.10;1.00;;;;;;;;;;4979475;28;20035;-88
2021/04/10 07:09:28;;;;;;;2.37;0.93;;;;;;;;;;4983576;28;20053;-88
2021/04/10 07:11:55;;;;;;;1.97;0.90;;;;;;;;;;4976286;28;20053;-89
2021/04/10 07:14:20;;;;;;;2.53;0.90;;;;;;;;;;4977218;28;20030;-89
2021/04/10 07:16:46;;;;;;;3.50;1.10;;;;;;;;;;4976163;28;20038;-89
2021/04/10 07:19:11;;;;;;;3.20;0.90;;;;;;;;;;4976268;28;20161;-89
2021/04/10 07:21:37;;;;;;;4.40;0.90;;;;;;;;;;4973064;28;20032;-89
2021/04/10 07:24:02;;;;;;;1.63;0.70;;;;;;;;;;4976088;28;20037;-89
2021/04/10 07:26:47;;;;;;;2.63;0.90;;;;;;;;;;4992710;28;20034;-89
2021/04/10 07:29:35;;;;;;;1.75;0.80;;;;;;;;;;4976013;28;20041;-89
2021/04/10 07:32:01;;;;;;;2.38;0.88;;;;;;;;;;4972894;28;20038;-89
2021/04/10 07:34:26;;;;;;;1.80;0.90;;;;;;;;;;4973579;28;20031;-90
2021/04/10 07:36:59;;;;;;;1.97;0.80;;;;;;;;;;4979360;28;20269;-89
2021/04/10 07:39:24;;;;;;;2.53;0.90;;;;;;;;;;4980016;28;20449;-89
2021/04/10 07:42:00;;;;;;;2.27;1.00;;;;;;;;;;4979857;28;20030;-89
2021/04/10 07:44:38;;;;;;;2.28;0.80;;;;;;;;;;4980153;28;20022;-89
2021/04/10 07:47:05;;;;;;;3.72;0.90;;;;;;;;;;4976678;28;20513;-90
2021/04/10 07:49:30;;;;;;;3.33;0.75;;;;;;;;;;4957849;28;20054;-90
2021/04/10 07:51:57;;;;;;;2.17;1.00;;;;;;;;;;4996129;28;20034;-88
2021/04/10 07:54:32;;;;;;;4.00;0.85;;;;;;;;;;4995903;28;20582;-89
2021/04/10 07:57:02;;;;;;;2.90;0.70;;;;;;;;;;4992699;28;20027;-90
2021/04/10 07:59:28;;;;;;;2.78;0.80;;;;;;;;;;5004506;28;20034;-88
2021/04/10 08:01:53;;;;;;;1.52;0.80;;;;;;;;;;4995657;28;20037;-88
2021/04/10 08:04:20;;;;;;;3.57;0.80;;;;;;;;;;4978247;28;20268;-90
2021/04/10 08:06:56;;;;;;;3.30;0.90;;;;;;;;;;4995651;28;20109;-87
2021/04/10 08:09:34;;;;;;;2.88;0.90;;;;;;;;;;4979379;28;20018;-87
2021/04/10 08:12:00;;;;;;;2.00;0.90;;;;;;;;;;4979303;28;20121;-88
2021/04/10 08:14:37;;;;;;;1.60;0.87;;;;;;;;;;4995531;28;20514;-87
2021/04/10 08:17:02;;;;;;;2.30;0.90;;;;;;;;;;4980100;28;20541;-87
2021/04/10 08:19:29;;;;;;;2.00;0.97;;;;;;;;;;4979084;28;20034;-87
2021/04/10 08:21:54;;;;;;;;;;;;;;;;;;4979646;28;20400;-88
2021/04/10 08:24:33;;;;;;;1.77;0.75;;;;;;;;;;4979028;28;19909;-87
2021/04/10 08:27:10;;;;;;;2.28;0.88;;;;;;;;;;4980256;28;20022;-87
2021/04/10 08:29:35;;;;;;;2.28;0.90;;;;;;;;;;4979128;28;20033;-88
2021/04/10 08:32:02;;;;;;;1.90;0.90;;;;;;;;;;4978895;28;20370;-88
2021/04/10 08:34:27;;;;;;;1.38;0.70;;;;;;;;;;4978893;28;20030;-87
2021/04/10 08:36:57;;;;;;;2.73;0.90;;;;;;;;;;4979177;28;20501;-88
2021/04/10 08:39:26;;;;;;;1.92;0.80;;;;;;;;;;4977987;28;20038;-88
2021/04/10 08:41:54;;;;;;;1.98;0.90;;;;;;;;;;4978935;28;20502;-88
2021/04/10 08:44:22;;;;;;;2.33;0.80;;;;;;;;;;4994673;28;20026;-88
2021/04/10 08:46:48;;;;;;;2.47;0.88;;;;;;;;;;4974993;28;20110;-88
2021/04/10 08:49:14;;;;;;;1.70;0.87;;;;;;;;;;4962587;28;20113;-88
2021/04/10 08:51:40;;;;;;;1.98;1.00;;;;;;;;;;4978661;28;20060;-88
2021/04/10 08:54:10;;;;;;;1.70;0.80;;;;;;;;;;4978235;28;20030;-88
2021/04/10 08:56:36;;;;;;;2.90;0.90;;;;;;;;;;4962615;28;20019;-88
2021/04/10 08:59:11;;;;;;;3.23;0.80;;;;;;;;;;4978142;28;20105;-88
2021/04/10 09:01:39;;;;;;;3.67;1.23;;;;;;;;;;4977946;28;20486;-87
2021/04/10 09:04:04;;;;;;;3.85;0.90;;;;;;;;;;4978655;28;20505;-88
2021/04/10 09:06:30;;;;;;;1.83;0.80;;;;;;;;;;4977923;28;20027;-88
2021/04/10 09:09:11;;;;;;;3.25;1.00;;;;;;;;;;4994233;28;20041;-88
2021/04/10 09:11:37;;;;;;;2.28;0.85;;;;;;;;;;4977579;28;20030;-87
2021/04/10 09:14:02;;;;;;;2.03;0.90;;;;;;;;;;4984724;28;20084;-88
2021/04/10 09:16:37;;;;;;;3.47;1.00;;;;;;;;;;4994202;28;20061;-87
2021/04/10 09:19:17;;;;;;;2.13;0.80;;;;;;;;;;4978848;28;20045;-88
2021/04/10 09:21:44;;;;;;;2.05;0.90;;;;;;;;;;4991005;28;20085;-87
2021/04/10 09:24:30;;;;;;;3.55;1.00;;;;;;;;;;4985671;28;20030;-88
2021/04/10 09:26:59;;;;;;;3.65;0.93;;;;;;;;;;4978432;28;20458;-87
2021/04/10 09:29:49;;;;;;;5.28;0.88;;;;;;;;;;4977586;28;20030;-87
2021/04/10 09:32:31;;;;;;;3.42;1.13;;;;;;;;;;4996251;28;20042;-88
2021/04/10 09:35:06;;;;;;;2.65;0.90;;;;;;;;;;4978056;28;20397;-88
2021/04/10 09:37:31;;;;;;;3.90;1.10;;;;;;;;;;4993905;28;20033;-87
2021/04/10 09:40:03;;;;;;;2.50;0.80;;;;;;;;;;4993975;28;20109;-88
2021/04/10 09:45:29;;;;;;;2.20;0.80;;;;;;;;;;4995027;28;20038;-88
2021/04/10 09:47:55;;;;;;;2.10;0.90;;;;;;;;;;4994623;28;20061;-88
2021/04/10 09:50:26;;;;;;;2.67;0.93;;;;;;;;;;4993311;28;20050;-88
2021/04/10 09:53:02;;;;;;;2.17;0.80;;;;;;;;;;4977622;28;20084;-87
2021/04/10 09:55:29;;;;;;;2.47;0.95;;;;;;;;;;4977613;28;20030;-88
2021/04/10 09:58:05;;;;;;;3.53;1.00;;;;;;;;;;4974087;28;20031;-88
2021/04/10 10:00:33;;;;;;;2.90;0.98;;;;;;;;;;4975870;28;20117;-88
2021/04/10 10:02:59;;;;;;;2.03;0.93;;;;;;;;;;4974051;28;20101;-88
2021/04/10 10:05:26;;;;;;;2.40;1.20;;;;;;;;;;4979280;28;20054;-87
2021/04/10 10:07:51;;;;;;;4.28;1.00;;;;;;;;;;5024297;23;20042;-86
2021/04/10 10:10:17;;;;;;;3.10;1.00;;;;;;;;;;4993249;28;20411;-86
2021/04/10 10:12:42;;;;;;;3.80;1.00;;;;;;;;;;4994877;28;20026;-86
2021/04/10 10:15:21;;;;;;;1.67;0.80;;;;;;;;;;4996317;28;20104;-86
2021/04/10 10:17:46;;;;;;;2.08;0.90;;;;;;;;;;4986739;28;20027;-85
2021/04/10 10:20:13;;;;;;;2.00;1.00;;;;;;;;;;4957758;28;20088;-86
2021/04/10 10:22:39;;;;;;;3.20;1.05;;;;;;;;;;4957795;28;20018;-86
2021/04/10 10:25:05;;;;;;;4.70;1.10;;;;;;;;;;4973168;28;20104;-86
2021/04/10 10:27:35;;;;;;;1.83;0.90;;;;;;;;;;4989115;28;20379;-87
2021/04/10 10:30:02;;;;;;;2.45;1.15;;;;;;;;;;4989155;28;20520;-86
2021/04/10 10:32:27;;;;;;;2.65;0.90;;;;;;;;;;4969146;28;20033;-86
2021/04/10 10:34:53;;;;;;;3.43;1.03;;;;;;;;;;4976701;28;20026;-86
2021/04/10 10:37:23;;;;;;;4.87;0.90;;;;;;;;;;4976099;28;20058;-86
2021/04/10 10:39:49;;;;;;;3.33;0.80;;;;;;;;;;4976540;28;20026;-86
2021/04/10 10:42:14;;;;;;;2.83;0.97;;;;;;;;;;4962525;28;20038;-86
2021/04/10 10:44:39;;;;;;;1.73;0.90;;;;;;;;;;4938008;29;20070;-86
2021/04/10 10:47:07;;;;;;;3.13;1.00;;;;;;;;;;4947229;28;20051;-86
2021/04/10 10:49:32;;;;;;;3.05;0.90;;;;;;;;;;4958918;28;20061;-86
2021/04/10 10:51:57;;;;;;;2.90;1.03;;;;;;;;;;4973656;28;20457;-86
2021/04/10 10:54:33;;;;;;;1.77;0.80;;;;;;;;;;4957413;28;20080;-87
2021/04/10 10:56:58;;;;;;;2.58;1.00;;;;;;;;;;4957225;28;20098;-86
2021/04/10 10:59:27;;;;;;;2.47;1.00;;;;;;;;;;4973622;28;20058;-86
2021/04/10 11:01:52;;;;;;;3.03;0.95;;;;;;;;;;4967259;28;20438;-86
2021/04/10 11:04:25;;;;;;;2.13;1.00;;;;;;;;;;4992919;28;20053;-86
2021/04/10 11:06:52;;;;;;;2.17;1.00;;;;;;;;;;4967763;28;20065;-86
2021/04/10 11:09:20;;;;;;;;;;;;;;;;;;4989711;28;20478;-86
2021/04/10 11:11:46;;;;;;;2.72;0.93;;;;;;;;;;4959736;28;19910;-86
2021/04/10 11:14:11;;;;;;;1.90;0.87;;;;;;;;;;4989088;28;20037;-87
2021/04/10 11:16:47;;;;;;;1.70;1.10;;;;;;;;;;4981330;28;20034;-88
2021/04/10 11:19:23;;;;;;;2.15;1.08;;;;;;;;;;4980596;28;20408;-86
2021/04/10 11:21:49;;;;;;;2.63;0.93;;;;;;;;;;4981966;28;20027;-87
2021/04/10 11:24:14;;;;;;;2.60;1.00;;;;;;;;;;4998321;28;20037;-87
2021/04/10 11:26:46;;;;;;;2.03;1.00;;;;;;;;;;4968411;28;20034;-87
2021/04/10 11:29:25;;;;;;;3.80;1.20;;;;;;;;;;4978697;28;20030;-88
2021/04/10 11:32:22;;;;;;;2.58;1.02;;;;;;;;;;4991633;28;20031;-87
2021/04/10 11:35:02;;;;;;;3.28;1.10;;;;;;;;;;4964250;28;20501;-87
2021/04/10 11:37:30;;;;;;;3.40;1.08;;;;;;;;;;4944841;28;20031;-86
2021/04/10 11:40:19;;;;;;;3.03;1.05;;;;;;;;;;4994181;28;20034;-86
2021/04/10 11:42:49;;;;;;;2.20;0.80;;;;;;;;;;4976386;28;20101;-87
2021/04/10 11:45:37;;;;;;;3.35;0.90;;;;;;;;;;4965864;28;20045;-86
2021/04/10 11:48:22;;;;;;;2.72;1.02;;;;;;;;;;5013086;28;20092;-87
2021/04/10 11:50:51;;;;;;;2.00;0.90;;;;;;;;;;4997008;28;20042;-86
2021/04/10 11:53:27;;;;;;;1.95;0.90;;;;;;;;;;4958331;29;20027;-86
2021/04/10 11:55:56;;;;;;;2.35;1.02;;;;;;;;;;4974399;28;20035;-86
2021/04/10 11:58:38;;;;;;;3.50;0.95;;;;;;;;;;4974316;28;20019;-87
2021/04/10 12:01:07;;;;;;;3.03;1.05;;;;;;;;;;4968653;28;20544;-86
2021/04/10 12:03:33;;;;;;;5.40;1.77;;;;;;;;;;4977711;28;20436;-87
2021/04/10 12:05:58;;;;;;;3.73;1.30;;;;;;;;;;4995213;28;20022;-86
2021/04/10 12:08:28;;;;;;;4.47;1.50;;;;;;;;;;4979974;28;20080;-87
2021/04/10 12:10:58;;;;;;;10.90;2.63;;;;;;;;;;4981830;28;20026;-86
2021/04/10 12:13:25;;;;;;;7.35;2.45;;;;;;;;;;4995640;28;20030;-86
2021/04/10 12:15:54;;;;;;;7.22;2.25;;;;;;;;;;4996684;28;20029;-86
2021/04/10 12:18:22;;;;;;;8.32;1.80;;;;;;;;;;4966100;28;20042;-86
2021/04/10 12:20:47;;;;;;;5.55;1.83;;;;;;;;;;4976898;28;20398;-87
2021/04/10 12:23:12;;;;;;;3.70;1.63;;;;;;;;;;4990913;28;20026;-86
2021/04/10 12:25:38;;;;;;;6.90;1.30;;;;;;;;;;4974454;28;20536;-88
2021/04/10 12:28:04;;;;;;;7.53;1.77;;;;;;;;;;4975850;28;20493;-88
2021/04/10 12:30:30;;;;;;;5.15;1.40;;;;;;;;;;4995091;28;20098;-88
2021/04/10 12:32:55;;;;;;;3.47;1.30;;;;;;;;;;4978592;28;20408;-88
2021/04/10 12:35:20;;;;;;;5.03;1.33;;;;;;;;;;4976206;28;20038;-87
2021/04/10 12:37:46;;;;;;;3.23;1.17;;;;;;;;;;4958865;28;20359;-87
2021/04/10 12:40:12;;;;;;;4.63;1.50;;;;;;;;;;4941014;29;20098;-86
2021/04/10 12:42:37;;;;;;;4.00;1.20;;;;;;;;;;4941400;29;20055;-86
2021/04/10 12:45:04;;;;;;;5.27;1.20;;;;;;;;;;4940407;29;20039;-86
2021/04/10 12:47:29;;;;;;;5.32;1.10;;;;;;;;;;4940977;29;20035;-86
2021/04/10 12:49:55;;;;;;;3.20;1.10;;;;;;;;;;4955757;29;20027;-86
2021/04/10 12:52:21;;;;;;;5.33;1.40;;;;;;;;;;4940455;29;20151;-86
2021/04/10 12:54:47;;;;;;;3.55;1.30;;;;;;;;;;4948598;28;20054;-86
2021/04/10 12:57:12;;;;;;;3.60;1.40;;;;;;;;;;4942020;29;20119;-87
2021/04/10 12:59:38;;;;;;;4.03;1.10;;;;;;;;;;4957416;29;20023;-87
2021/04/10 13:02:03;;;;;;;8.87;1.43;;;;;;;;;;4941535;28;20020;-86
2021/04/10 13:04:28;;;;;;;4.03;1.30;;;;;;;;;;4940851;29;20019;-86
2021/04/10 13:06:58;;;;;;;2.33;1.00;;;;;;;;;;4944445;28;20118;-87
2021/04/10 13:09:23;;;;;;;4.95;1.20;;;;;;;;;;4978184;28;20125;-86
2021/04/10 13:11:49;;;;;;;2.93;0.93;;;;;;;;;;4993884;28;20442;-86
2021/04/10 13:14:15;;;;;;;3.27;1.07;;;;;;;;;;4978007;28;20029;-86
2021/04/10 13:16:40;;;;;;;3.30;1.03;;;;;;;;;;4993627;28;20546;-86
2021/04/10 13:19:05;;;;;;;2.80;1.00;;;;;;;;;;4994584;28;20073;-86
2021/04/10 13:21:31;;;;;;;4.73;1.27;;;;;;;;;;4993356;28;20030;-86
2021/04/10 13:23:56;;;;;;;3.73;1.20;;;;;;;;;;4977863;28;20110;-86
2021/04/10 13:26:22;;;;;;;4.70;1.20;;;;;;;;;;4977255;28;20077;-86
2021/04/10 13:28:48;;;;;;;2.55;1.00;;;;;;;;;;4977151;28;20045;-87
2021/04/10 13:31:13;;;;;;;3.13;1.03;;;;;;;;;;4976242;28;20030;-87
2021/04/10 13:33:39;;;;;;;4.00;1.17;;;;;;;;;;4990483;28;20478;-87
2021/04/10 13:36:05;;;;;;;3.50;1.00;;;;;;;;;;4941307;28;20023;-87
2021/04/10 13:38:30;;;;;;;2.87;1.00;;;;;;;;;;4939817;29;20118;-88
2021/04/10 13:40:56;;;;;;;3.67;1.10;;;;;;;;;;4956348;29;20053;-88
2021/04/10 13:43:21;;;;;;;3.57;1.17;;;;;;;;;;4939382;28;20134;-88
2021/04/10 13:45:47;;;;;;;2.07;1.27;;;;;;;;;;4942008;28;20035;-88
2021/04/10 13:48:13;;;;;;;4.67;1.60;;;;;;;;;;4990833;28;20482;-88
2021/04/10 13:50:39;;;;;;;10.27;1.40;;;;;;;;;;4959443;28;20477;-87
2021/04/10 13:53:04;;;;;;;71.57;6.80;;;;;;;;;;4975436;28;20038;-87
2021/04/10 13:55:29;;;;;;;117.73;10.97;;;;;;;;;;4977206;28;20061;-87
2021/04/10 13:57:55;;;;;;;104.40;9.53;;;;;;;;;;4966477;28;20392;-88
2021/04/10 14:00:21;;;;;;;68.33;7.47;;;;;;;;;;4979025;28;20106;-88
2021/04/10 14:02:46;;;;;;;66.27;6.93;;;;;;;;;;4964246;28;20469;-89
2021/04/10 14:05:16;;;;;;;54.87;6.13;;;;;;;;;;4943924;28;20735;-88
2021/04/10 14:07:41;;;;;;;39.63;4.03;;;;;;;;;;4945637;28;20557;-87
2021/04/10 14:10:11;;;;;;;26.67;3.07;;;;;;;;;;4946430;28;20023;-87
2021/04/10 14:12:36;;;;;;;18.05;3.08;;;;;;;;;;4946345;28;20023;-87
2021/04/10 14:15:03;;;;;;;15.03;2.20;;;;;;;;;;4950247;28;20033;-87
2021/04/10 14:17:28;;;;;;;;;;;;;;;;;;4975875;28;20015;-87
2021/04/10 14:19:54;;;;;;;47.10;5.00;;;;;;;;;;4990860;28;19960;-88
2021/04/10 14:22:20;;;;;;;27.07;3.80;;;;;;;;;;4963946;28;20027;-87
2021/04/10 14:24:46;;;;;;;18.92;2.92;;;;;;;;;;4941185;28;20130;-87
2021/04/10 14:27:11;;;;;;;18.90;2.60;;;;;;;;;;4961724;28;20058;-87
2021/04/10 14:29:41;;;;;;;12.83;2.33;;;;;;;;;;4979642;28;20060;-87
2021/04/10 14:32:06;;;;;;;15.00;2.65;;;;;;;;;;4980340;28;20100;-87
2021/04/10 14:34:32;;;;;;;9.47;2.20;;;;;;;;;;4979322;28;20485;-87
2021/04/10 14:36:57;;;;;;;11.00;1.80;;;;;;;;;;4943215;28;20030;-87
2021/04/10 14:39:22;;;;;;;6.70;1.63;;;;;;;;;;4956442;29;20110;-87
2021/04/10 14:41:48;;;;;;;8.00;1.93;;;;;;;;;;4945848;28;20065;-87
2021/04/10 14:44:13;;;;;;;8.63;1.87;;;;;;;;;;4975745;28;20498;-87
2021/04/10 14:46:39;;;;;;;9.53;1.90;;;;;;;;;;4959473;28;20054;-87
2021/04/10 14:49:04;;;;;;;9.20;1.50;;;;;;;;;;4992542;28;20106;-87